sensor_id;sensor_type;location;lat;lon;timestamp;P1;durP1;ratioP1;P2;durP2;ratioP2
25439;SDS011;13365;52.208;5.488;2024-02-16T00:01:00;5.30;;;2.90;;
25439;SDS011;13365;52.208;5.488;2024-02-16T00:03:26;4.53;;;2.78;;
25439;SDS011;13365;52.208;5.488;2024-02-16T00:05:52;6.55;;;2.90;;
25439;SDS011;13365;52.208;5.488;2024-02-16T00:08:18;8.65;;;3.13;;
25439;SDS011;13365;52.208;5.488;2024-02-16T00:10:45;5.35;;;3.10;;
25439;SDS011;13365;52.208;5.488;2024-02-16T00:13:11;7.80;;;3.45;;
25439;SDS011;13365;52.208;5.488;2024-02-16T00:15:37;6.82;;;3.20;;
25439;SDS011;13365;52.208;5.488;2024-02-16T00:18:03;5.75;;;3.00;;
25439;SDS011;13365;52.208;5.488;2024-02-16T00:20:32;7.93;;;3.13;;
25439;SDS011;13365;52.208;5.488;2024-02-16T00:22:58;7.00;;;2.95;;
25439;SDS011;13365;52.208;5.488;2024-02-16T00:25:25;8.63;;;3.17;;
25439;SDS011;13365;52.208;5.488;2024-02-16T00:27:51;9.38;;;3.20;;
25439;SDS011;13365;52.208;5.488;2024-02-16T00:30:18;9.35;;;3.65;;
25439;SDS011;13365;52.208;5.488;2024-02-16T00:32:44;8.15;;;3.47;;
25439;SDS011;13365;52.208;5.488;2024-02-16T00:35:10;8.02;;;3.25;;
25439;SDS011;13365;52.208;5.488;2024-02-16T00:37:36;6.88;;;3.42;;
25439;SDS011;13365;52.208;5.488;2024-02-16T00:40:03;6.25;;;3.10;;
25439;SDS011;13365;52.208;5.488;2024-02-16T00:42:29;7.72;;;3.60;;
25439;SDS011;13365;52.208;5.488;2024-02-16T00:44:56;7.75;;;3.15;;
25439;SDS011;13365;52.208;5.488;2024-02-16T00:47:22;8.75;;;3.05;;
25439;SDS011;13365;52.208;5.488;2024-02-16T00:49:48;7.85;;;3.10;;
25439;SDS011;13365;52.208;5.488;2024-02-16T00:52:14;11.50;;;3.58;;
25439;SDS011;13365;52.208;5.488;2024-02-16T00:54:40;8.00;;;3.03;;
25439;SDS011;13365;52.208;5.488;2024-02-16T00:57:05;11.13;;;3.30;;
25439;SDS011;13365;52.208;5.488;2024-02-16T00:59:31;10.20;;;3.33;;
25439;SDS011;13365;52.208;5.488;2024-02-16T01:01:57;6.55;;;3.45;;
25439;SDS011;13365;52.208;5.488;2024-02-16T01:04:23;10.50;;;3.08;;
25439;SDS011;13365;52.208;5.488;2024-02-16T01:06:48;5.10;;;3.42;;
25439;SDS011;13365;52.208;5.488;2024-02-16T01:09:14;7.72;;;3.25;;
25439;SDS011;13365;52.208;5.488;2024-02-16T01:11:41;8.10;;;3.13;;
25439;SDS011;13365;52.208;5.488;2024-02-16T01:14:07;9.38;;;2.95;;
25439;SDS011;13365;52.208;5.488;2024-02-16T01:16:32;7.65;;;3.30;;
25439;SDS011;13365;52.208;5.488;2024-02-16T01:18:58;9.40;;;3.53;;
25439;SDS011;13365;52.208;5.488;2024-02-16T01:21:24;8.60;;;3.47;;
25439;SDS011;13365;52.208;5.488;2024-02-16T01:23:49;5.20;;;3.15;;
25439;SDS011;13365;52.208;5.488;2024-02-16T01:26:15;6.68;;;3.38;;
25439;SDS011;13365;52.208;5.488;2024-02-16T01:28:40;6.93;;;3.00;;
25439;SDS011;13365;52.208;5.488;2024-02-16T01:31:06;7.20;;;3.38;;
25439;SDS011;13365;52.208;5.488;2024-02-16T01:33:34;9.88;;;2.95;;
25439;SDS011;13365;52.208;5.488;2024-02-16T01:36:00;6.45;;;3.45;;
25439;SDS011;13365;52.208;5.488;2024-02-16T01:38:27;7.00;;;3.50;;
25439;SDS011;13365;52.208;5.488;2024-02-16T01:40:53;6.43;;;2.90;;
25439;SDS011;13365;52.208;5.488;2024-02-16T01:43:19;7.75;;;3.28;;
25439;SDS011;13365;52.208;5.488;2024-02-16T01:45:45;5.90;;;3.40;;
25439;SDS011;13365;52.208;5.488;2024-02-16T01:48:11;4.97;;;3.22;;
25439;SDS011;13365;52.208;5.488;2024-02-16T01:50:38;6.80;;;3.72;;
25439;SDS011;13365;52.208;5.488;2024-02-16T01:53:03;7.15;;;3.30;;
25439;SDS011;13365;52.208;5.488;2024-02-16T01:55:29;9.40;;;3.40;;
25439;SDS011;13365;52.208;5.488;2024-02-16T01:57:55;7.68;;;3.30;;
25439;SDS011;13365;52.208;5.488;2024-02-16T02:00:24;10.02;;;3.25;;
25439;SDS011;13365;52.208;5.488;2024-02-16T02:02:50;7.63;;;3.30;;
25439;SDS011;13365;52.208;5.488;2024-02-16T02:05:17;5.93;;;3.40;;
25439;SDS011;13365;52.208;5.488;2024-02-16T02:07:43;7.32;;;3.50;;
25439;SDS011;13365;52.208;5.488;2024-02-16T02:10:09;8.40;;;3.17;;
25439;SDS011;13365;52.208;5.488;2024-02-16T02:12:37;6.38;;;3.63;;
25439;SDS011;13365;52.208;5.488;2024-02-16T02:15:03;6.20;;;3.50;;
25439;SDS011;13365;52.208;5.488;2024-02-16T02:17:30;6.70;;;3.55;;
25439;SDS011;13365;52.208;5.488;2024-02-16T02:19:55;11.70;;;3.72;;
25439;SDS011;13365;52.208;5.488;2024-02-16T02:22:21;8.57;;;3.58;;
25439;SDS011;13365;52.208;5.488;2024-02-16T02:24:47;6.35;;;2.95;;
25439;SDS011;13365;52.208;5.488;2024-02-16T02:27:14;7.60;;;3.72;;
25439;SDS011;13365;52.208;5.488;2024-02-16T02:29:40;11.90;;;3.72;;
25439;SDS011;13365;52.208;5.488;2024-02-16T02:32:06;9.43;;;4.40;;
25439;SDS011;13365;52.208;5.488;2024-02-16T02:34:32;9.05;;;3.83;;
25439;SDS011;13365;52.208;5.488;2024-02-16T02:36:58;9.75;;;3.38;;
25439;SDS011;13365;52.208;5.488;2024-02-16T02:39:23;6.95;;;3.63;;
25439;SDS011;13365;52.208;5.488;2024-02-16T02:41:49;9.75;;;3.80;;
25439;SDS011;13365;52.208;5.488;2024-02-16T02:44:15;6.28;;;3.58;;
25439;SDS011;13365;52.208;5.488;2024-02-16T02:46:40;7.35;;;3.20;;
25439;SDS011;13365;52.208;5.488;2024-02-16T02:49:07;9.25;;;3.53;;
25439;SDS011;13365;52.208;5.488;2024-02-16T02:51:33;7.47;;;3.53;;
25439;SDS011;13365;52.208;5.488;2024-02-16T02:53:59;6.50;;;4.00;;
25439;SDS011;13365;52.208;5.488;2024-02-16T02:56:24;8.27;;;3.50;;
25439;SDS011;13365;52.208;5.488;2024-02-16T02:58:50;8.95;;;3.53;;
25439;SDS011;13365;52.208;5.488;2024-02-16T03:01:15;8.50;;;3.67;;
25439;SDS011;13365;52.208;5.488;2024-02-16T03:03:41;7.10;;;3.53;;
25439;SDS011;13365;52.208;5.488;2024-02-16T03:06:08;4.85;;;3.15;;
25439;SDS011;13365;52.208;5.488;2024-02-16T03:08:34;9.60;;;3.30;;
25439;SDS011;13365;52.208;5.488;2024-02-16T03:11:00;8.35;;;3.40;;
25439;SDS011;13365;52.208;5.488;2024-02-16T03:13:26;6.82;;;3.72;;
25439;SDS011;13365;52.208;5.488;2024-02-16T03:15:52;5.95;;;3.55;;
25439;SDS011;13365;52.208;5.488;2024-02-16T03:18:18;10.20;;;3.85;;
25439;SDS011;13365;52.208;5.488;2024-02-16T03:20:44;4.88;;;3.03;;
25439;SDS011;13365;52.208;5.488;2024-02-16T03:23:12;6.93;;;3.00;;
25439;SDS011;13365;52.208;5.488;2024-02-16T03:25:38;8.27;;;3.45;;
25439;SDS011;13365;52.208;5.488;2024-02-16T03:28:04;7.68;;;3.40;;
25439;SDS011;13365;52.208;5.488;2024-02-16T03:30:30;5.72;;;3.42;;
25439;SDS011;13365;52.208;5.488;2024-02-16T03:32:56;6.97;;;3.50;;
25439;SDS011;13365;52.208;5.488;2024-02-16T03:35:22;6.00;;;3.30;;
25439;SDS011;13365;52.208;5.488;2024-02-16T03:37:47;5.00;;;3.00;;
25439;SDS011;13365;52.208;5.488;2024-02-16T03:40:13;6.20;;;3.05;;
25439;SDS011;13365;52.208;5.488;2024-02-16T03:42:39;6.57;;;3.40;;
25439;SDS011;13365;52.208;5.488;2024-02-16T03:45:06;8.13;;;3.22;;
25439;SDS011;13365;52.208;5.488;2024-02-16T03:47:32;6.50;;;3.20;;
25439;SDS011;13365;52.208;5.488;2024-02-16T03:49:58;5.47;;;3.42;;
25439;SDS011;13365;52.208;5.488;2024-02-16T03:52:23;8.98;;;3.47;;
25439;SDS011;13365;52.208;5.488;2024-02-16T03:54:49;10.18;;;3.30;;
25439;SDS011;13365;52.208;5.488;2024-02-16T03:57:16;7.43;;;3.58;;
25439;SDS011;13365;52.208;5.488;2024-02-16T03:59:42;7.28;;;3.55;;
25439;SDS011;13365;52.208;5.488;2024-02-16T04:02:11;6.22;;;3.30;;
25439;SDS011;13365;52.208;5.488;2024-02-16T04:04:40;6.35;;;3.13;;
25439;SDS011;13365;52.208;5.488;2024-02-16T04:07:06;8.57;;;3.60;;
25439;SDS011;13365;52.208;5.488;2024-02-16T04:09:33;8.40;;;3.33;;
25439;SDS011;13365;52.208;5.488;2024-02-16T04:11:59;7.07;;;3.42;;
25439;SDS011;13365;52.208;5.488;2024-02-16T04:14:25;5.88;;;2.92;;
25439;SDS011;13365;52.208;5.488;2024-02-16T04:16:51;6.13;;;3.15;;
25439;SDS011;13365;52.208;5.488;2024-02-16T04:19:16;5.60;;;3.40;;
25439;SDS011;13365;52.208;5.488;2024-02-16T04:21:42;10.52;;;3.92;;
25439;SDS011;13365;52.208;5.488;2024-02-16T04:24:08;6.28;;;3.30;;
25439;SDS011;13365;52.208;5.488;2024-02-16T04:26:33;15.27;;;3.67;;
25439;SDS011;13365;52.208;5.488;2024-02-16T04:28:59;7.00;;;2.92;;
25439;SDS011;13365;52.208;5.488;2024-02-16T04:31:25;7.80;;;3.13;;
25439;SDS011;13365;52.208;5.488;2024-02-16T04:33:50;8.98;;;3.50;;
25439;SDS011;13365;52.208;5.488;2024-02-16T04:36:16;6.82;;;3.50;;
25439;SDS011;13365;52.208;5.488;2024-02-16T04:38:42;8.50;;;3.20;;
25439;SDS011;13365;52.208;5.488;2024-02-16T04:41:08;10.55;;;2.92;;
25439;SDS011;13365;52.208;5.488;2024-02-16T04:43:33;8.50;;;3.47;;
25439;SDS011;13365;52.208;5.488;2024-02-16T04:46:00;10.13;;;3.78;;
25439;SDS011;13365;52.208;5.488;2024-02-16T04:48:25;6.88;;;3.17;;
25439;SDS011;13365;52.208;5.488;2024-02-16T04:50:51;9.73;;;3.30;;
25439;SDS011;13365;52.208;5.488;2024-02-16T04:53:17;6.57;;;3.28;;
25439;SDS011;13365;52.208;5.488;2024-02-16T04:55:42;7.50;;;3.33;;
25439;SDS011;13365;52.208;5.488;2024-02-16T04:58:08;5.43;;;2.70;;
25439;SDS011;13365;52.208;5.488;2024-02-16T05:00:37;10.18;;;3.25;;
25439;SDS011;13365;52.208;5.488;2024-02-16T05:03:03;5.35;;;3.03;;
25439;SDS011;13365;52.208;5.488;2024-02-16T05:05:29;9.80;;;3.10;;
25439;SDS011;13365;52.208;5.488;2024-02-16T05:07:55;11.48;;;2.95;;
25439;SDS011;13365;52.208;5.488;2024-02-16T05:10:21;5.10;;;2.92;;
25439;SDS011;13365;52.208;5.488;2024-02-16T05:12:46;10.93;;;3.40;;
25439;SDS011;13365;52.208;5.488;2024-02-16T05:15:12;8.77;;;3.40;;
25439;SDS011;13365;52.208;5.488;2024-02-16T05:17:42;7.18;;;3.22;;
25439;SDS011;13365;52.208;5.488;2024-02-16T05:20:11;5.90;;;3.17;;
25439;SDS011;13365;52.208;5.488;2024-02-16T05:22:46;7.13;;;3.20;;
25439;SDS011;13365;52.208;5.488;2024-02-16T05:25:12;7.13;;;3.53;;
25439;SDS011;13365;52.208;5.488;2024-02-16T05:27:39;9.25;;;3.28;;
25439;SDS011;13365;52.208;5.488;2024-02-16T05:30:04;10.05;;;3.20;;
25439;SDS011;13365;52.208;5.488;2024-02-16T05:32:35;7.85;;;3.30;;
25439;SDS011;13365;52.208;5.488;2024-02-16T05:35:02;5.53;;;3.45;;
25439;SDS011;13365;52.208;5.488;2024-02-16T05:37:38;9.10;;;3.15;;
25439;SDS011;13365;52.208;5.488;2024-02-16T05:40:06;6.70;;;2.95;;
25439;SDS011;13365;52.208;5.488;2024-02-16T05:42:43;12.60;;;3.40;;
25439;SDS011;13365;52.208;5.488;2024-02-16T05:45:10;8.10;;;3.22;;
25439;SDS011;13365;52.208;5.488;2024-02-16T05:47:36;5.88;;;3.22;;
25439;SDS011;13365;52.208;5.488;2024-02-16T05:50:03;7.85;;;3.35;;
25439;SDS011;13365;52.208;5.488;2024-02-16T05:52:30;8.20;;;3.08;;
25439;SDS011;13365;52.208;5.488;2024-02-16T05:54:55;9.95;;;3.35;;
25439;SDS011;13365;52.208;5.488;2024-02-16T05:57:21;7.03;;;3.03;;
25439;SDS011;13365;52.208;5.488;2024-02-16T05:59:46;7.10;;;3.22;;
25439;SDS011;13365;52.208;5.488;2024-02-16T06:02:12;10.18;;;3.35;;
25439;SDS011;13365;52.208;5.488;2024-02-16T06:04:38;6.47;;;2.90;;
25439;SDS011;13365;52.208;5.488;2024-02-16T06:07:04;9.00;;;3.10;;
25439;SDS011;13365;52.208;5.488;2024-02-16T06:09:31;9.88;;;3.30;;
25439;SDS011;13365;52.208;5.488;2024-02-16T06:12:03;7.22;;;2.95;;
25439;SDS011;13365;52.208;5.488;2024-02-16T06:14:33;5.75;;;3.05;;
25439;SDS011;13365;52.208;5.488;2024-02-16T06:16:59;5.85;;;3.22;;
25439;SDS011;13365;52.208;5.488;2024-02-16T06:19:25;8.48;;;3.47;;
25439;SDS011;13365;52.208;5.488;2024-02-16T06:21:52;7.18;;;2.75;;
25439;SDS011;13365;52.208;5.488;2024-02-16T06:24:19;6.72;;;2.83;;
25439;SDS011;13365;52.208;5.488;2024-02-16T06:26:48;5.47;;;2.97;;
25439;SDS011;13365;52.208;5.488;2024-02-16T06:29:15;7.13;;;3.13;;
25439;SDS011;13365;52.208;5.488;2024-02-16T06:31:41;7.68;;;3.30;;
25439;SDS011;13365;52.208;5.488;2024-02-16T06:34:06;6.78;;;3.20;;
25439;SDS011;13365;52.208;5.488;2024-02-16T06:36:33;10.85;;;3.20;;
25439;SDS011;13365;52.208;5.488;2024-02-16T06:38:59;7.63;;;3.05;;
25439;SDS011;13365;52.208;5.488;2024-02-16T06:41:25;8.75;;;3.03;;
25439;SDS011;13365;52.208;5.488;2024-02-16T06:43:50;7.53;;;3.38;;
25439;SDS011;13365;52.208;5.488;2024-02-16T06:46:16;5.68;;;2.70;;
25439;SDS011;13365;52.208;5.488;2024-02-16T06:48:42;5.75;;;2.70;;
25439;SDS011;13365;52.208;5.488;2024-02-16T06:51:07;4.22;;;2.70;;
25439;SDS011;13365;52.208;5.488;2024-02-16T06:53:33;8.18;;;3.25;;
25439;SDS011;13365;52.208;5.488;2024-02-16T06:55:59;7.78;;;3.20;;
25439;SDS011;13365;52.208;5.488;2024-02-16T06:58:24;9.18;;;2.75;;
25439;SDS011;13365;52.208;5.488;2024-02-16T07:00:50;7.72;;;3.10;;
25439;SDS011;13365;52.208;5.488;2024-02-16T07:03:15;7.30;;;3.33;;
25439;SDS011;13365;52.208;5.488;2024-02-16T07:05:41;10.30;;;3.30;;
25439;SDS011;13365;52.208;5.488;2024-02-16T07:08:07;7.65;;;3.20;;
25439;SDS011;13365;52.208;5.488;2024-02-16T07:10:32;5.72;;;3.00;;
25439;SDS011;13365;52.208;5.488;2024-02-16T07:12:59;8.18;;;3.13;;
25439;SDS011;13365;52.208;5.488;2024-02-16T07:15:25;7.88;;;3.20;;
25439;SDS011;13365;52.208;5.488;2024-02-16T07:17:51;8.15;;;3.38;;
25439;SDS011;13365;52.208;5.488;2024-02-16T07:20:18;6.65;;;3.15;;
25439;SDS011;13365;52.208;5.488;2024-02-16T07:22:43;8.30;;;3.15;;
25439;SDS011;13365;52.208;5.488;2024-02-16T07:25:11;7.30;;;3.13;;
25439;SDS011;13365;52.208;5.488;2024-02-16T07:27:37;7.18;;;3.40;;
25439;SDS011;13365;52.208;5.488;2024-02-16T07:30:03;8.20;;;3.67;;
25439;SDS011;13365;52.208;5.488;2024-02-16T07:32:30;11.10;;;3.33;;
25439;SDS011;13365;52.208;5.488;2024-02-16T07:34:55;8.77;;;3.03;;
25439;SDS011;13365;52.208;5.488;2024-02-16T07:37:21;8.07;;;3.47;;
25439;SDS011;13365;52.208;5.488;2024-02-16T07:39:46;5.72;;;2.97;;
25439;SDS011;13365;52.208;5.488;2024-02-16T07:42:12;15.05;;;3.72;;
25439;SDS011;13365;52.208;5.488;2024-02-16T07:44:38;8.52;;;3.17;;
25439;SDS011;13365;52.208;5.488;2024-02-16T07:47:04;7.35;;;3.33;;
25439;SDS011;13365;52.208;5.488;2024-02-16T07:49:30;4.68;;;3.08;;
25439;SDS011;13365;52.208;5.488;2024-02-16T07:51:56;6.45;;;3.60;;
25439;SDS011;13365;52.208;5.488;2024-02-16T07:54:22;6.72;;;3.47;;
25439;SDS011;13365;52.208;5.488;2024-02-16T07:56:48;8.80;;;3.45;;
25439;SDS011;13365;52.208;5.488;2024-02-16T07:59:14;6.45;;;3.35;;
25439;SDS011;13365;52.208;5.488;2024-02-16T08:01:39;7.68;;;3.35;;
25439;SDS011;13365;52.208;5.488;2024-02-16T08:04:05;11.32;;;3.60;;
25439;SDS011;13365;52.208;5.488;2024-02-16T08:06:31;7.78;;;3.58;;
25439;SDS011;13365;52.208;5.488;2024-02-16T08:08:56;12.90;;;3.75;;
25439;SDS011;13365;52.208;5.488;2024-02-16T08:11:22;7.15;;;3.35;;
25439;SDS011;13365;52.208;5.488;2024-02-16T08:13:48;9.40;;;3.45;;
25439;SDS011;13365;52.208;5.488;2024-02-16T08:16:13;9.27;;;3.08;;
25439;SDS011;13365;52.208;5.488;2024-02-16T08:18:39;4.60;;;3.13;;
25439;SDS011;13365;52.208;5.488;2024-02-16T08:21:05;6.10;;;3.72;;
25439;SDS011;13365;52.208;5.488;2024-02-16T08:23:30;7.05;;;3.35;;
25439;SDS011;13365;52.208;5.488;2024-02-16T08:25:56;7.50;;;4.00;;
25439;SDS011;13365;52.208;5.488;2024-02-16T08:28:23;6.45;;;3.22;;
25439;SDS011;13365;52.208;5.488;2024-02-16T08:30:49;5.47;;;3.28;;
25439;SDS011;13365;52.208;5.488;2024-02-16T08:33:15;5.43;;;3.03;;
25439;SDS011;13365;52.208;5.488;2024-02-16T08:35:41;8.52;;;3.80;;
25439;SDS011;13365;52.208;5.488;2024-02-16T08:38:06;9.10;;;3.35;;
25439;SDS011;13365;52.208;5.488;2024-02-16T08:40:36;8.38;;;3.65;;
25439;SDS011;13365;52.208;5.488;2024-02-16T08:43:03;7.18;;;3.67;;
25439;SDS011;13365;52.208;5.488;2024-02-16T08:45:30;7.38;;;3.40;;
25439;SDS011;13365;52.208;5.488;2024-02-16T08:47:55;7.82;;;3.45;;
25439;SDS011;13365;52.208;5.488;2024-02-16T08:50:22;9.10;;;3.42;;
25439;SDS011;13365;52.208;5.488;2024-02-16T08:52:49;7.25;;;3.63;;
25439;SDS011;13365;52.208;5.488;2024-02-16T08:55:15;10.73;;;3.90;;
25439;SDS011;13365;52.208;5.488;2024-02-16T08:57:41;7.72;;;3.28;;
25439;SDS011;13365;52.208;5.488;2024-02-16T09:00:07;8.00;;;3.92;;
25439;SDS011;13365;52.208;5.488;2024-02-16T09:02:33;7.78;;;3.92;;
25439;SDS011;13365;52.208;5.488;2024-02-16T09:04:58;9.60;;;3.70;;
25439;SDS011;13365;52.208;5.488;2024-02-16T09:07:24;6.85;;;3.53;;
25439;SDS011;13365;52.208;5.488;2024-02-16T09:09:50;6.13;;;3.72;;
25439;SDS011;13365;52.208;5.488;2024-02-16T09:12:16;14.25;;;3.28;;
25439;SDS011;13365;52.208;5.488;2024-02-16T09:14:42;8.73;;;3.67;;
25439;SDS011;13365;52.208;5.488;2024-02-16T09:17:07;6.05;;;3.30;;
25439;SDS011;13365;52.208;5.488;2024-02-16T09:19:33;8.73;;;3.60;;
25439;SDS011;13365;52.208;5.488;2024-02-16T09:21:59;7.93;;;3.33;;
25439;SDS011;13365;52.208;5.488;2024-02-16T09:24:27;7.82;;;4.32;;
25439;SDS011;13365;52.208;5.488;2024-02-16T09:26:54;8.65;;;4.10;;
25439;SDS011;13365;52.208;5.488;2024-02-16T09:29:20;6.57;;;3.92;;
25439;SDS011;13365;52.208;5.488;2024-02-16T09:31:48;12.75;;;4.57;;
25439;SDS011;13365;52.208;5.488;2024-02-16T09:34:15;8.63;;;4.18;;
25439;SDS011;13365;52.208;5.488;2024-02-16T09:36:42;16.20;;;4.57;;
25439;SDS011;13365;52.208;5.488;2024-02-16T09:39:08;8.60;;;4.22;;
25439;SDS011;13365;52.208;5.488;2024-02-16T09:41:34;8.73;;;4.18;;
25439;SDS011;13365;52.208;5.488;2024-02-16T09:44:03;6.45;;;4.13;;
25439;SDS011;13365;52.208;5.488;2024-02-16T09:46:29;9.70;;;4.38;;
25439;SDS011;13365;52.208;5.488;2024-02-16T09:49:00;8.98;;;4.32;;
25439;SDS011;13365;52.208;5.488;2024-02-16T09:51:27;9.68;;;4.78;;
25439;SDS011;13365;52.208;5.488;2024-02-16T09:53:53;9.88;;;4.25;;
25439;SDS011;13365;52.208;5.488;2024-02-16T09:56:22;8.00;;;4.70;;
25439;SDS011;13365;52.208;5.488;2024-02-16T09:58:49;12.63;;;5.20;;
25439;SDS011;13365;52.208;5.488;2024-02-16T10:01:20;10.18;;;5.05;;
25439;SDS011;13365;52.208;5.488;2024-02-16T10:03:46;9.05;;;4.85;;
25439;SDS011;13365;52.208;5.488;2024-02-16T10:06:12;7.47;;;4.32;;
25439;SDS011;13365;52.208;5.488;2024-02-16T10:08:53;8.50;;;4.43;;
25439;SDS011;13365;52.208;5.488;2024-02-16T10:11:25;8.57;;;4.85;;
25439;SDS011;13365;52.208;5.488;2024-02-16T10:13:54;11.13;;;4.95;;
25439;SDS011;13365;52.208;5.488;2024-02-16T10:16:22;8.35;;;4.53;;
25439;SDS011;13365;52.208;5.488;2024-02-16T10:18:48;9.23;;;4.75;;
25439;SDS011;13365;52.208;5.488;2024-02-16T10:21:23;9.93;;;4.63;;
25439;SDS011;13365;52.208;5.488;2024-02-16T10:26:22;10.25;;;5.03;;
25439;SDS011;13365;52.208;5.488;2024-02-16T10:28:49;11.73;;;5.20;;
25439;SDS011;13365;52.208;5.488;2024-02-16T10:31:19;9.90;;;5.03;;
25439;SDS011;13365;52.208;5.488;2024-02-16T10:33:52;12.23;;;5.18;;
25439;SDS011;13365;52.208;5.488;2024-02-16T10:36:22;8.00;;;5.03;;
25439;SDS011;13365;52.208;5.488;2024-02-16T10:38:51;10.27;;;5.35;;
25439;SDS011;13365;52.208;5.488;2024-02-16T10:41:18;12.10;;;6.10;;
25439;SDS011;13365;52.208;5.488;2024-02-16T10:43:46;10.13;;;5.65;;
25439;SDS011;13365;52.208;5.488;2024-02-16T10:46:14;12.27;;;5.45;;
25439;SDS011;13365;52.208;5.488;2024-02-16T10:48:41;15.63;;;6.00;;
25439;SDS011;13365;52.208;5.488;2024-02-16T10:51:07;11.50;;;5.75;;
25439;SDS011;13365;52.208;5.488;2024-02-16T10:53:34;11.55;;;6.68;;
25439;SDS011;13365;52.208;5.488;2024-02-16T10:56:01;11.93;;;6.60;;
25439;SDS011;13365;52.208;5.488;2024-02-16T10:58:27;14.13;;;6.72;;
25439;SDS011;13365;52.208;5.488;2024-02-16T11:00:54;15.43;;;7.15;;
25439;SDS011;13365;52.208;5.488;2024-02-16T11:03:22;12.65;;;6.75;;
25439;SDS011;13365;52.208;5.488;2024-02-16T11:05:49;16.75;;;7.38;;
25439;SDS011;13365;52.208;5.488;2024-02-16T11:08:15;14.75;;;7.85;;
25439;SDS011;13365;52.208;5.488;2024-02-16T11:13:24;14.05;;;7.00;;
25439;SDS011;13365;52.208;5.488;2024-02-16T11:15:57;13.52;;;7.68;;
25439;SDS011;13365;52.208;5.488;2024-02-16T11:18:38;14.52;;;8.10;;
25439;SDS011;13365;52.208;5.488;2024-02-16T11:21:05;15.65;;;7.95;;
25439;SDS011;13365;52.208;5.488;2024-02-16T11:23:32;16.40;;;7.90;;
25439;SDS011;13365;52.208;5.488;2024-02-16T11:26:01;13.27;;;7.40;;
25439;SDS011;13365;52.208;5.488;2024-02-16T11:28:34;15.00;;;8.65;;
25439;SDS011;13365;52.208;5.488;2024-02-16T11:31:00;12.93;;;8.03;;
25439;SDS011;13365;52.208;5.488;2024-02-16T11:33:27;17.10;;;8.63;;
25439;SDS011;13365;52.208;5.488;2024-02-16T11:36:00;18.15;;;8.60;;
25439;SDS011;13365;52.208;5.488;2024-02-16T11:38:27;14.05;;;8.27;;
25439;SDS011;13365;52.208;5.488;2024-02-16T11:40:57;14.63;;;7.40;;
25439;SDS011;13365;52.208;5.488;2024-02-16T11:43:23;20.95;;;8.02;;
25439;SDS011;13365;52.208;5.488;2024-02-16T11:45:49;16.45;;;8.48;;
25439;SDS011;13365;52.208;5.488;2024-02-16T11:48:19;13.98;;;8.15;;
25439;SDS011;13365;52.208;5.488;2024-02-16T11:50:49;16.23;;;7.97;;
25439;SDS011;13365;52.208;5.488;2024-02-16T11:53:24;13.60;;;7.43;;
25439;SDS011;13365;52.208;5.488;2024-02-16T11:55:49;14.43;;;8.05;;
25439;SDS011;13365;52.208;5.488;2024-02-16T11:58:18;12.98;;;7.97;;
25439;SDS011;13365;52.208;5.488;2024-02-16T12:00:47;13.52;;;7.85;;
25439;SDS011;13365;52.208;5.488;2024-02-16T12:03:24;14.10;;;7.88;;
25439;SDS011;13365;52.208;5.488;2024-02-16T12:05:52;14.63;;;8.07;;
25439;SDS011;13365;52.208;5.488;2024-02-16T12:08:21;20.80;;;8.85;;
25439;SDS011;13365;52.208;5.488;2024-02-16T12:10:48;15.68;;;9.00;;
25439;SDS011;13365;52.208;5.488;2024-02-16T12:13:18;15.93;;;8.20;;
25439;SDS011;13365;52.208;5.488;2024-02-16T12:15:45;17.45;;;7.82;;
25439;SDS011;13365;52.208;5.488;2024-02-16T12:18:19;14.93;;;7.93;;
25439;SDS011;13365;52.208;5.488;2024-02-16T12:20:44;14.07;;;7.32;;
25439;SDS011;13365;52.208;5.488;2024-02-16T12:23:13;14.38;;;5.60;;
25439;SDS011;13365;52.208;5.488;2024-02-16T12:25:39;10.77;;;6.45;;
25439;SDS011;13365;52.208;5.488;2024-02-16T12:28:04;12.55;;;6.25;;
25439;SDS011;13365;52.208;5.488;2024-02-16T12:30:31;11.70;;;6.68;;
25439;SDS011;13365;52.208;5.488;2024-02-16T12:32:56;15.60;;;7.05;;
25439;SDS011;13365;52.208;5.488;2024-02-16T12:35:22;14.77;;;6.35;;
25439;SDS011;13365;52.208;5.488;2024-02-16T12:37:47;13.43;;;5.80;;
25439;SDS011;13365;52.208;5.488;2024-02-16T12:40:13;16.38;;;6.35;;
25439;SDS011;13365;52.208;5.488;2024-02-16T12:42:38;9.13;;;4.13;;
25439;SDS011;13365;52.208;5.488;2024-02-16T12:45:04;12.95;;;6.13;;
25439;SDS011;13365;52.208;5.488;2024-02-16T12:47:30;6.85;;;3.97;;
25439;SDS011;13365;52.208;5.488;2024-02-16T12:49:56;6.20;;;4.22;;
25439;SDS011;13365;52.208;5.488;2024-02-16T12:52:22;9.15;;;4.55;;
25439;SDS011;13365;52.208;5.488;2024-02-16T12:54:48;6.50;;;4.20;;
25439;SDS011;13365;52.208;5.488;2024-02-16T12:57:14;5.47;;;3.35;;
25439;SDS011;13365;52.208;5.488;2024-02-16T12:59:39;6.30;;;3.38;;
25439;SDS011;13365;52.208;5.488;2024-02-16T13:02:05;4.72;;;3.03;;
25439;SDS011;13365;52.208;5.488;2024-02-16T13:04:30;5.75;;;3.58;;
25439;SDS011;13365;52.208;5.488;2024-02-16T13:06:57;7.10;;;3.30;;
25439;SDS011;13365;52.208;5.488;2024-02-16T13:09:23;6.35;;;3.42;;
25439;SDS011;13365;52.208;5.488;2024-02-16T13:11:48;7.20;;;3.33;;
25439;SDS011;13365;52.208;5.488;2024-02-16T13:14:19;6.35;;;3.80;;
25439;SDS011;13365;52.208;5.488;2024-02-16T13:16:47;6.93;;;4.72;;
25439;SDS011;13365;52.208;5.488;2024-02-16T13:19:13;6.35;;;4.20;;
25439;SDS011;13365;52.208;5.488;2024-02-16T13:21:39;8.32;;;4.80;;
25439;SDS011;13365;52.208;5.488;2024-02-16T13:24:05;10.77;;;4.47;;
25439;SDS011;13365;52.208;5.488;2024-02-16T13:26:31;9.27;;;3.90;;
25439;SDS011;13365;52.208;5.488;2024-02-16T13:28:56;6.80;;;4.28;;
25439;SDS011;13365;52.208;5.488;2024-02-16T13:31:22;5.75;;;3.80;;
25439;SDS011;13365;52.208;5.488;2024-02-16T13:33:49;5.43;;;4.00;;
25439;SDS011;13365;52.208;5.488;2024-02-16T13:36:16;6.50;;;4.30;;
25439;SDS011;13365;52.208;5.488;2024-02-16T13:38:42;7.80;;;4.30;;
25439;SDS011;13365;52.208;5.488;2024-02-16T13:41:08;7.32;;;4.90;;
25439;SDS011;13365;52.208;5.488;2024-02-16T13:43:33;8.63;;;4.50;;
25439;SDS011;13365;52.208;5.488;2024-02-16T13:45:59;7.38;;;5.05;;
25439;SDS011;13365;52.208;5.488;2024-02-16T13:48:25;6.03;;;4.05;;
25439;SDS011;13365;52.208;5.488;2024-02-16T13:50:50;4.90;;;3.45;;
25439;SDS011;13365;52.208;5.488;2024-02-16T13:53:16;6.22;;;3.13;;
25439;SDS011;13365;52.208;5.488;2024-02-16T13:55:43;4.20;;;3.22;;
25439;SDS011;13365;52.208;5.488;2024-02-16T13:58:09;7.00;;;4.15;;
25439;SDS011;13365;52.208;5.488;2024-02-16T14:00:36;8.65;;;4.57;;
25439;SDS011;13365;52.208;5.488;2024-02-16T14:03:02;5.78;;;3.80;;
25439;SDS011;13365;52.208;5.488;2024-02-16T14:05:29;6.00;;;4.07;;
25439;SDS011;13365;52.208;5.488;2024-02-16T14:07:54;9.50;;;3.80;;
25439;SDS011;13365;52.208;5.488;2024-02-16T14:10:22;4.60;;;3.58;;
25439;SDS011;13365;52.208;5.488;2024-02-16T14:12:47;6.25;;;4.07;;
25439;SDS011;13365;52.208;5.488;2024-02-16T14:15:13;4.47;;;3.10;;
25439;SDS011;13365;52.208;5.488;2024-02-16T14:17:43;8.05;;;3.08;;
25439;SDS011;13365;52.208;5.488;2024-02-16T14:20:09;6.45;;;3.60;;
25439;SDS011;13365;52.208;5.488;2024-02-16T14:22:35;8.43;;;3.50;;
25439;SDS011;13365;52.208;5.488;2024-02-16T14:25:01;7.28;;;3.33;;
25439;SDS011;13365;52.208;5.488;2024-02-16T14:27:28;5.63;;;3.55;;
25439;SDS011;13365;52.208;5.488;2024-02-16T14:29:54;7.07;;;3.55;;
25439;SDS011;13365;52.208;5.488;2024-02-16T14:32:21;7.50;;;3.70;;
25439;SDS011;13365;52.208;5.488;2024-02-16T14:34:47;8.02;;;3.30;;
25439;SDS011;13365;52.208;5.488;2024-02-16T14:37:12;8.27;;;3.60;;
25439;SDS011;13365;52.208;5.488;2024-02-16T14:39:38;7.82;;;3.58;;
25439;SDS011;13365;52.208;5.488;2024-02-16T14:42:03;6.25;;;3.53;;
25439;SDS011;13365;52.208;5.488;2024-02-16T14:44:29;7.60;;;4.38;;
25439;SDS011;13365;52.208;5.488;2024-02-16T14:46:55;7.00;;;4.07;;